Terminal Aerodrome Forecast
Issued by NWS Duluth, MN

Home | Current Version | Previous Version | Text Only | Print | Product List | Glossary On
Versions: 1 2 3 4 5 6 7 8 9 10 11 12 13 14 15 16 17 18 19 20 21 22 23 24 25 26
000
FTUS43 KDLH 230006 AAA
TAFINL
TAF AMD
KINL 230006Z 2300/2324 30009KT P6SM VCSH BKN012 OVC050
      TEMPO 2300/2303 4SM -SHRA OVC008
     FM230400 32005KT P6SM VCSH OVC040
     FM230800 35005KT P6SM OVC050=

USA.gov is the U.S. government's official web portal to all federal, state and local government web resources and services.